createdAt,value
2023-03-23T15:58:17.008Z,50.24
2023-03-23T15:59:38.777Z,50.35
2023-03-23T16:01:07.489Z,50.35
2023-03-23T16:02:43.722Z,50.39
2023-03-23T16:04:27.693Z,50.68
2023-03-23T16:06:11.553Z,50.85
2023-03-23T16:07:52.273Z,51.13
2023-03-23T16:09:17.284Z,50.85
2023-03-23T16:10:46.254Z,50.73
2023-03-23T16:12:17.781Z,50.62
2023-03-23T16:13:51.439Z,50.99
2023-03-23T16:15:13.468Z,50.79
2023-03-23T16:16:50.952Z,51.03
2023-03-23T16:18:33.050Z,51.02
2023-03-23T16:19:54.768Z,50.85
2023-03-23T16:21:32.517Z,51.11
2023-03-23T16:23:01.823Z,51.05
2023-03-23T16:24:23.809Z,51.42
2023-03-23T16:25:48.122Z,51.36
2023-03-23T16:27:12.737Z,51.49
2023-03-23T16:28:36.644Z,52.01
2023-03-23T16:30:12.498Z,52.20
2023-03-23T16:31:36.047Z,52.45
2023-03-23T16:33:21.044Z,52.56
2023-03-23T16:34:42.311Z,52.67
2023-03-23T16:36:04.241Z,52.69
2023-03-23T16:37:37.763Z,52.97
2023-03-23T16:39:31.381Z,53.09
2023-03-23T16:41:24.876Z,53.26
2023-03-23T16:42:58.343Z,53.63
2023-03-23T16:44:31.546Z,53.67
2023-03-23T16:45:53.940Z,53.90
2023-03-23T16:47:35.911Z,53.88
2023-03-23T16:48:57.831Z,54.02
2023-03-23T16:50:33.274Z,54.37
2023-03-23T16:52:18.661Z,54.56
2023-03-23T16:53:51.759Z,54.60
2023-03-23T16:55:13.594Z,54.66
2023-03-23T16:56:49.952Z,54.87
2023-03-23T17:00:35.189Z,55.07
2023-03-23T17:02:11.297Z,55.05
2023-03-23T17:03:47.047Z,55.28
2023-03-23T17:05:22.747Z,55.14
2023-03-23T17:07:06.023Z,55.41
2023-03-23T17:08:40.598Z,55.56
2023-03-23T17:10:13.942Z,55.67
2023-03-23T17:11:49.345Z,55.79
2023-03-23T17:13:25.329Z,55.95
2023-03-23T17:15:09.930Z,55.84
2023-03-23T17:16:43.443Z,56.03
2023-03-23T17:18:28.532Z,56.19
2023-03-23T17:20:16.486Z,56.26
2023-03-23T17:21:49.931Z,56.28
2023-03-23T17:23:32.309Z,56.26
2023-03-23T17:24:57.352Z,56.39
2023-03-23T17:26:40.763Z,56.40
2023-03-23T17:28:05.123Z,56.57
2023-03-23T17:29:40.135Z,56.53
2023-03-23T17:31:13.473Z,56.69
2023-03-23T17:32:37.348Z,56.66
2023-03-23T17:34:13.246Z,56.61
2023-03-23T17:36:06.931Z,56.69
2023-03-23T17:37:47.897Z,56.39
2023-03-23T17:39:32.942Z,56.37
2023-03-23T17:41:17.076Z,56.35
2023-03-23T17:42:41.129Z,56.38
2023-03-23T17:44:22.570Z,56.44
2023-03-23T17:45:58.191Z,56.05
2023-03-23T17:47:43.259Z,56.02
2023-03-23T17:49:16.314Z,56.05
2023-03-23T17:51:01.336Z,55.89
2023-03-23T17:52:46.049Z,56.13
2023-03-23T17:54:31.027Z,55.91
2023-03-23T17:58:27.043Z,56.11
2023-03-23T18:00:12.156Z,56.47
2023-03-23T18:02:01.525Z,56.70
2023-03-23T18:03:25.988Z,56.96
2023-03-23T18:05:07.861Z,57.21
2023-03-23T18:06:49.864Z,57.57
2023-03-23T18:08:30.575Z,57.95
2023-03-23T18:10:16.113Z,58.09
2023-03-23T18:12:09.730Z,58.03
2023-03-23T18:13:54.417Z,58.36
2023-03-23T18:15:48.465Z,58.65
2023-03-23T18:17:22.464Z,58.27
2023-03-23T18:18:47.047Z,58.37
2023-03-23T18:20:13.681Z,58.51
2023-03-23T18:21:40.501Z,58.43
2023-03-23T18:23:04.816Z,58.36
2023-03-23T18:24:50.086Z,58.45
2023-03-23T18:26:11.908Z,58.09
2023-03-23T18:27:45.363Z,58.20
2023-03-23T18:29:20.954Z,58.07
2023-03-23T18:30:50.032Z,57.89
2023-03-23T18:32:39.270Z,57.88
2023-03-23T18:34:03.714Z,58.20
2023-03-23T18:35:30.550Z,57.86
2023-03-23T18:36:57.185Z,57.97
2023-03-23T18:38:32.982Z,58.03
2023-03-23T18:40:07.091Z,57.96
2023-03-23T18:41:55.809Z,57.95
2023-03-23T18:43:30.556Z,57.58
2023-03-23T18:45:16.425Z,57.60
2023-03-23T18:48:45.668Z,57.75
2023-03-23T18:50:21.728Z,57.96
2023-03-23T18:52:07.069Z,58.12
2023-03-23T18:53:31.107Z,57.94
2023-03-23T18:55:16.333Z,57.88
2023-03-23T18:56:38.203Z,57.75
2023-03-23T18:58:00.377Z,57.79
2023-03-23T18:59:23.982Z,57.61
2023-03-23T19:00:48.137Z,57.73
2023-03-23T19:02:13.134Z,57.85
2023-03-23T19:03:35.185Z,57.92
2023-03-23T19:05:07.629Z,58.05
2023-03-23T19:06:37.112Z,57.98
2023-03-23T19:08:06.730Z,58.07
2023-03-23T19:09:48.955Z,57.82
2023-03-23T19:11:25.209Z,57.94
2023-03-23T19:12:48.491Z,57.88
2023-03-23T19:14:13.103Z,58.07
2023-03-23T19:15:50.439Z,58.27
2023-03-23T19:17:25.992Z,58.18
2023-03-23T19:19:08.501Z,58.11
2023-03-23T19:21:13.459Z,57.86
2023-03-23T19:22:48.296Z,57.82
2023-03-23T19:24:34.318Z,57.90
2023-03-23T19:25:58.884Z,58.24
2023-03-23T19:27:32.619Z,58.39
2023-03-23T19:30:23.901Z,58.42
2023-03-23T19:31:48.219Z,58.33
2023-03-23T19:33:33.079Z,58.31
2023-03-23T19:34:57.278Z,58.59
2023-03-23T19:36:19.077Z,58.63
2023-03-23T19:37:59.939Z,58.54
2023-03-23T19:39:29.059Z,58.58
2023-03-23T19:41:04.911Z,58.70
2023-03-23T19:42:37.879Z,58.52
2023-03-23T19:44:11.554Z,58.90
2023-03-23T19:45:45.272Z,59.13
2023-03-23T19:47:30.239Z,59.06
2023-03-23T19:49:10.669Z,58.92
2023-03-23T19:50:40.692Z,59.21
2023-03-23T19:52:13.592Z,59.16
2023-03-23T19:54:09.012Z,59.28
2023-03-23T19:55:51.387Z,59.39
2023-03-23T19:57:45.489Z,59.53
2023-03-23T19:59:26.215Z,59.22
2023-03-23T20:01:11.076Z,59.20
2023-03-23T20:02:35.183Z,58.83
2023-03-23T20:04:04.715Z,58.58
2023-03-23T20:05:53.314Z,58.48
2023-03-23T20:07:27.014Z,58.22
2023-03-23T20:09:01.291Z,58.07
2023-03-23T20:10:35.512Z,58.12
2023-03-23T20:12:21.248Z,58.04
2023-03-23T20:13:48.374Z,57.82
2023-03-23T20:15:33.579Z,57.70
2023-03-23T20:17:10.281Z,57.72
2023-03-23T20:19:00.340Z,57.49
2023-03-23T20:20:31.615Z,57.45
2023-03-23T20:22:07.399Z,57.25
2023-03-23T20:23:29.032Z,57.26
2023-03-23T20:25:02.483Z,56.96
2023-03-23T20:26:38.247Z,56.65
2023-03-23T20:28:00.363Z,56.70
2023-03-23T20:29:22.089Z,56.87
2023-03-23T20:30:46.145Z,56.78
2023-03-23T20:32:35.470Z,56.74
2023-03-23T20:34:03.319Z,56.96
2023-03-23T20:35:25.473Z,57.17
2023-03-23T20:36:50.358Z,57.09
2023-03-23T20:38:23.652Z,57.28
2023-03-23T20:39:57.820Z,57.57
2023-03-23T20:41:38.622Z,57.68
2023-03-23T20:43:15.266Z,57.85
2023-03-23T20:44:39.592Z,57.98
2023-03-23T20:46:13.238Z,57.83
2023-03-23T20:47:46.709Z,58.14
2023-03-23T20:49:20.495Z,57.98
2023-03-23T20:51:06.176Z,57.97
2023-03-23T20:52:27.909Z,58.02
2023-03-23T20:54:08.426Z,57.96
2023-03-23T20:55:33.145Z,58.22
2023-03-23T20:57:07.634Z,58.27
2023-03-23T20:58:39.420Z,58.45
2023-03-23T21:00:12.514Z,58.50
2023-03-23T21:01:36.706Z,58.44
2023-03-23T21:02:58.827Z,58.45
2023-03-23T21:04:28.533Z,58.42
2023-03-23T21:05:54.960Z,58.48
2023-03-23T21:07:27.374Z,58.46
2023-03-23T21:08:51.766Z,58.39
2023-03-23T21:10:25.521Z,58.61
2023-03-23T21:11:49.920Z,58.39
2023-03-23T21:13:24.295Z,58.50
2023-03-23T21:14:57.547Z,58.68
2023-03-23T21:16:24.282Z,58.80
2023-03-23T21:18:09.721Z,58.63
2023-03-23T21:19:34.056Z,58.74
2023-03-23T21:20:57.797Z,58.53
2023-03-23T21:22:31.360Z,58.56
2023-03-23T21:23:53.326Z,58.60
2023-03-23T21:25:34.157Z,58.58
2023-03-23T21:27:10.958Z,58.52
2023-03-23T21:28:32.694Z,58.72
2023-03-23T21:30:17.434Z,58.65
2023-03-23T21:31:39.524Z,58.70
2023-03-23T21:33:15.252Z,58.64
2023-03-23T21:34:50.632Z,58.80
2023-03-23T21:36:14.609Z,58.99
2023-03-23T21:37:43.745Z,58.92
2023-03-23T21:39:10.100Z,59.01
2023-03-23T21:40:43.552Z,59.09
2023-03-23T21:42:06.774Z,59.17
2023-03-23T21:43:30.777Z,59.51
2023-03-23T21:45:12.056Z,59.78
2023-03-23T21:46:49.831Z,59.81
2023-03-23T21:48:35.265Z,59.94
2023-03-23T21:50:09.093Z,60.16
2023-03-23T21:51:47.112Z,60.21
2023-03-23T21:53:32.772Z,60.41
2023-03-23T21:54:54.678Z,60.48
2023-03-23T21:56:16.569Z,60.54
2023-03-23T21:57:58.664Z,60.69
2023-03-23T21:59:27.802Z,60.84
2023-03-23T22:01:10.926Z,60.92
2023-03-23T22:02:47.570Z,61.01
2023-03-23T22:04:11.990Z,61.06
2023-03-23T22:05:33.783Z,61.17
2023-03-23T22:06:56.916Z,61.49
2023-03-23T22:08:20.211Z,61.60
2023-03-23T22:09:50.204Z,61.74
2023-03-23T22:11:19.715Z,61.87
2023-03-23T22:12:41.660Z,61.96
2023-03-23T22:14:05.835Z,62.01
2023-03-23T22:15:47.141Z,62.13
2023-03-23T22:17:09.035Z,62.21
2023-03-23T22:19:00.509Z,62.43
2023-03-23T22:20:25.012Z,62.34
2023-03-23T22:21:46.904Z,62.39
2023-03-23T22:23:20.292Z,62.29
2023-03-23T22:25:05.904Z,62.36
2023-03-23T22:26:27.681Z,62.64
2023-03-23T22:27:52.471Z,62.64
2023-03-23T22:29:17.169Z,62.92
2023-03-23T22:30:38.635Z,62.92
2023-03-23T22:32:02.464Z,62.98
2023-03-23T22:33:31.630Z,62.76
2023-03-23T22:34:55.582Z,62.90
2023-03-23T22:36:17.613Z,62.86
2023-03-23T22:37:51.291Z,62.59
2023-03-23T22:39:12.855Z,62.54
2023-03-23T22:40:42.480Z,62.47
2023-03-23T22:42:15.793Z,62.31
2023-03-23T22:43:44.894Z,62.26
2023-03-23T22:45:09.682Z,62.16
2023-03-23T22:46:43.371Z,62.23
2023-03-23T22:48:07.895Z,62.39
2023-03-23T22:49:43.395Z,62.38
2023-03-23T22:51:14.888Z,62.34
2023-03-23T22:52:50.379Z,62.44
2023-03-23T22:54:19.563Z,62.47
2023-03-23T22:55:52.990Z,62.34
2023-03-23T22:57:26.743Z,62.03
2023-03-23T22:59:02.705Z,62.24
2023-03-23T23:00:35.959Z,62.48
2023-03-23T23:02:09.573Z,62.45
2023-03-23T23:03:52.446Z,62.50
2023-03-23T23:05:14.041Z,62.56
2023-03-23T23:06:53.571Z,62.57
2023-03-23T23:08:33.191Z,62.73
2023-03-23T23:09:55.324Z,62.83
2023-03-23T23:11:19.360Z,63.10
2023-03-23T23:12:42.307Z,62.84
2023-03-23T23:14:15.628Z,63.24
2023-03-23T23:15:55.890Z,63.27
2023-03-23T23:17:43.521Z,63.20
2023-03-23T23:19:17.452Z,63.59
2023-03-23T23:20:51.116Z,63.48
2023-03-23T23:22:24.380Z,63.55
2023-03-23T23:23:58.114Z,63.50
2023-03-23T23:25:21.005Z,63.52
2023-03-23T23:26:49.752Z,63.50
2023-03-23T23:28:13.360Z,63.93
2023-03-23T23:29:44.631Z,64.14
2023-03-23T23:31:08.711Z,63.94
2023-03-23T23:32:44.567Z,64.14
2023-03-23T23:34:06.766Z,64.38
2023-03-23T23:35:49.462Z,64.26
2023-03-23T23:37:18.790Z,63.89
2023-03-23T23:38:55.450Z,64.22
2023-03-23T23:40:28.983Z,64.13
2023-03-23T23:42:02.405Z,64.07
2023-03-23T23:43:28.374Z,64.35
2023-03-23T23:45:09.793Z,64.56
2023-03-23T23:46:31.646Z,64.70
2023-03-23T23:48:05.408Z,64.64
2023-03-23T23:49:50.365Z,64.86
2023-03-23T23:51:16.406Z,64.66
2023-03-23T23:52:41.535Z,64.86
2023-03-23T23:54:05.981Z,64.76
2023-03-23T23:55:27.792Z,65.12
2023-03-23T23:57:01.566Z,65.44
2023-03-23T23:58:38.376Z,65.49
